Time;durP1;ratioP1;P1;durP2;ratioP2;P2;SDS_P1;SDS_P2;PMS_P1;PMS_P2;Temp;Humidity;BMP_temperature;BMP_pressure;BME280_temperature;BME280_humidity;BME280_pressure;Samples;Min_cycle;Max_cycle;Signal;HPM_P1;HPM_P2
2021/09/07 00:01:23;;;;;;;24.10;4.82;;;26.80;94.20;;;;;;5043688;28;20017;-60
2021/09/07 00:03:50;;;;;;;13.77;4.50;;;26.80;94.70;;;;;;5043603;28;20030;-52
2021/09/07 00:06:17;;;;;;;12.20;3.60;;;26.70;94.50;;;;;;5043440;28;20017;-57
2021/09/07 00:08:47;;;;;;;11.40;4.13;;;26.70;94.30;;;;;;5046088;28;20036;-58
2021/09/07 00:11:16;;;;;;;10.27;4.70;;;26.70;94.50;;;;;;5047473;28;20028;-54
2021/09/07 00:13:44;;;;;;;9.20;4.28;;;26.70;94.60;;;;;;5047429;28;20210;-54
2021/09/07 00:16:12;;;;;;;7.25;4.82;;;26.70;94.60;;;;;;5047185;28;20103;-54
2021/09/07 00:18:39;;;;;;;60.30;10.02;;;26.70;94.70;;;;;;5046029;28;20360;-54
2021/09/07 00:21:06;;;;;;;52.55;8.75;;;26.70;95.00;;;;;;5046740;28;20029;-51
2021/09/07 00:23:32;;;;;;;81.88;11.25;;;26.70;95.00;;;;;;5046305;28;20317;-55
2021/09/07 00:25:59;;;;;;;95.35;12.35;;;26.70;95.10;;;;;;5046901;28;20029;-57
2021/09/07 00:28:26;;;;;;;81.80;10.70;;;26.70;95.20;;;;;;5047353;28;20236;-59
2021/09/07 00:30:52;;;;;;;70.22;8.75;;;26.60;95.20;;;;;;5046197;28;20095;-53
2021/09/07 00:33:19;;;;;;;73.18;8.38;;;26.60;95.10;;;;;;5046703;28;20020;-52
2021/09/07 00:35:46;;;;;;;89.05;9.95;;;26.60;95.10;;;;;;5046878;28;20055;-52
2021/09/07 00:38:13;;;;;;;95.65;10.65;;;26.60;95.20;;;;;;5045904;28;20059;-59
2021/09/07 00:40:39;;;;;;;64.07;6.97;;;26.60;95.30;;;;;;5045556;28;20140;-56
2021/09/07 00:43:06;;;;;;;77.57;7.60;;;26.60;95.30;;;;;;5046436;28;20261;-50
2021/09/07 00:45:36;;;;;;;108.95;9.70;;;26.60;95.20;;;;;;5045924;28;20054;-54
2021/09/07 00:48:03;;;;;;;74.85;7.13;;;26.60;95.20;;;;;;5044430;28;20293;-52
2021/09/07 00:50:29;;;;;;;47.72;5.10;;;26.60;95.10;;;;;;5046364;28;20032;-48
2021/09/07 00:52:59;;;;;;;53.92;6.78;;;26.60;95.10;;;;;;5046463;28;20240;-53
2021/09/07 00:55:27;;;;;;;58.97;5.43;;;26.60;95.20;;;;;;5055086;28;20028;-51
2021/09/07 00:57:56;;;;;;;22.95;3.22;;;26.60;95.40;;;;;;5052991;28;20032;-56
2021/09/07 01:00:23;;;;;;;14.43;2.22;;;26.60;95.30;;;;;;5055262;28;20099;-56
2021/09/07 01:02:51;;;;;;;16.67;2.45;;;26.60;95.50;;;;;;5055154;28;20025;-54
2021/09/07 01:05:18;;;;;;;12.43;2.40;;;26.60;95.60;;;;;;5053590;28;20021;-57
2021/09/07 01:07:46;;;;;;;10.50;2.00;;;26.60;95.50;;;;;;5055396;28;20025;-52
2021/09/07 01:10:12;;;;;;;38.45;3.00;;;26.60;95.60;;;;;;5055927;28;20021;-51
2021/09/07 01:12:39;;;;;;;54.40;4.90;;;26.60;95.60;;;;;;5056150;28;20015;-55
2021/09/07 01:15:07;;;;;;;59.90;6.13;;;26.60;95.70;;;;;;5055983;28;20035;-54
2021/09/07 01:17:37;;;;;;;52.63;5.57;;;26.50;95.60;;;;;;5047428;28;20122;-52
2021/09/07 01:20:05;;;;;;;56.05;6.40;;;26.60;95.80;;;;;;5047922;28;20034;-53
2021/09/07 01:22:32;;;;;;;58.05;6.68;;;26.60;95.70;;;;;;5045561;28;20017;-49
2021/09/07 01:24:58;;;;;;;61.53;6.75;;;26.60;95.60;;;;;;5045217;28;20072;-52
2021/09/07 01:27:26;;;;;;;42.80;5.25;;;26.60;95.60;;;;;;5045610;28;20017;-52
2021/09/07 01:29:53;;;;;;;26.67;4.32;;;26.60;95.50;;;;;;5046418;28;20033;-56
2021/09/07 01:32:23;;;;;;;32.83;5.07;;;26.70;95.50;;;;;;5045955;28;20024;-47
2021/09/07 01:34:50;;;;;;;33.92;5.45;;;26.70;95.40;;;;;;5046351;28;20021;-55
2021/09/07 01:37:17;;;;;;;28.90;4.15;;;26.70;95.40;;;;;;5046287;28;20310;-49
2021/09/07 01:39:44;;;;;;;15.25;3.10;;;26.70;95.40;;;;;;5046288;28;20298;-51
2021/09/07 01:42:11;;;;;;;27.95;4.13;;;26.80;95.40;;;;;;5045991;28;20214;-53
2021/09/07 01:44:45;;;;;;;48.40;5.15;;;26.80;95.40;;;;;;5046334;28;20088;-54
2021/09/07 01:47:14;;;;;;;52.03;5.22;;;26.80;95.30;;;;;;5046106;28;20048;-47
2021/09/07 01:49:44;;;;;;;50.00;5.45;;;26.80;95.30;;;;;;5044872;28;20072;-51
2021/09/07 01:52:15;;;;;;;36.88;4.93;;;26.70;95.20;;;;;;5044916;28;20029;-48
2021/09/07 01:54:44;;;;;;;41.58;5.13;;;26.80;95.30;;;;;;5044706;28;20032;-47
2021/09/07 01:57:12;;;;;;;36.88;6.10;;;26.80;95.30;;;;;;5046672;28;20025;-47
2021/09/07 01:59:39;;;;;;;46.03;5.15;;;26.80;95.40;;;;;;5047032;28;20029;-50
2021/09/07 02:02:07;;;;;;;31.83;4.10;;;26.80;95.40;;;;;;5045329;28;20031;-48
2021/09/07 02:04:33;;;;;;;23.63;6.05;;;26.80;95.30;;;;;;5047092;28;20100;-53
2021/09/07 02:07:00;;;;;;;19.70;6.55;;;26.80;95.20;;;;;;5045845;28;20318;-56
2021/09/07 02:09:27;;;;;;;17.38;5.20;;;26.80;95.20;;;;;;5045919;28;20030;-51
2021/09/07 02:11:54;;;;;;;20.15;4.20;;;26.80;95.20;;;;;;5048153;28;20009;-54
2021/09/07 02:14:21;;;;;;;18.08;4.07;;;26.80;95.30;;;;;;5046444;28;20048;-52
2021/09/07 02:16:48;;;;;;;18.52;3.03;;;26.80;95.30;;;;;;5046064;28;20041;-54
2021/09/07 02:19:15;;;;;;;17.55;3.60;;;26.80;95.30;;;;;;5047023;28;20025;-46
2021/09/07 02:21:42;;;;;;;22.65;3.30;;;26.80;95.20;;;;;;5044734;28;20025;-51
2021/09/07 02:24:09;;;;;;;21.73;3.65;;;26.80;95.30;;;;;;5045850;28;20043;-52
2021/09/07 02:26:36;;;;;;;22.42;3.25;;;26.80;95.30;;;;;;5044069;28;20222;-52
2021/09/07 02:29:12;;;;;;;22.50;3.55;;;26.80;95.30;;;;;;5045244;28;20022;-52
2021/09/07 02:31:43;;;;;;;14.93;3.20;;;26.80;95.30;;;;;;5043471;28;20084;-47
2021/09/07 02:34:10;;;;;;;11.27;2.67;;;26.80;95.30;;;;;;5045133;28;20024;-54
2021/09/07 02:36:37;;;;;;;7.85;2.90;;;26.80;95.30;;;;;;5045205;28;20283;-57
2021/09/07 02:39:17;;;;;;;8.90;2.20;;;26.90;95.30;;;;;;5045004;28;20029;-48
2021/09/07 02:41:44;;;;;;;6.25;2.80;;;26.90;95.30;;;;;;5044078;28;20084;-48
2021/09/07 02:44:11;;;;;;;5.32;2.50;;;26.80;95.20;;;;;;5044215;28;20028;-60
2021/09/07 02:46:38;;;;;;;9.73;2.30;;;26.90;95.30;;;;;;5044765;28;20057;-54
2021/09/07 02:49:07;;;;;;;7.47;2.40;;;26.80;95.30;;;;;;5044952;28;20021;-51
2021/09/07 02:51:34;;;;;;;6.63;2.58;;;26.80;95.30;;;;;;5044708;28;20088;-49
2021/09/07 02:54:01;;;;;;;8.27;2.50;;;26.80;95.40;;;;;;5044882;28;20237;-52
2021/09/07 02:56:27;;;;;;;6.20;2.33;;;26.80;95.50;;;;;;5047400;28;20032;-47
2021/09/07 02:58:54;;;;;;;16.60;2.70;;;26.80;95.80;;;;;;5045543;28;20285;-51
2021/09/07 03:01:24;;;;;;;12.30;2.40;;;26.80;95.50;;;;;;5044641;28;20068;-52
2021/09/07 03:03:50;;;;;;;7.72;2.40;;;26.80;95.60;;;;;;5046219;28;20060;-51
2021/09/07 03:06:17;;;;;;;10.38;2.22;;;26.70;95.60;;;;;;5043817;28;20013;-54
2021/09/07 03:08:53;;;;;;;9.25;2.42;;;26.70;95.60;;;;;;5049551;28;20325;-55
2021/09/07 03:11:20;;;;;;;8.50;2.00;;;26.70;95.70;;;;;;5063397;28;20032;-49
2021/09/07 03:13:46;;;;;;;12.43;1.88;;;26.70;95.70;;;;;;5064223;28;20031;-48
2021/09/07 03:16:13;;;;;;;9.25;1.70;;;26.70;95.70;;;;;;5063857;28;20045;-47
2021/09/07 03:18:40;;;;;;;5.15;1.58;;;26.70;95.80;;;;;;5064709;28;20032;-55
2021/09/07 03:21:08;;;;;;;6.25;1.88;;;26.80;95.70;;;;;;5064164;28;20045;-51
2021/09/07 03:35:53;;;;;;;6.65;1.50;;;26.70;95.50;;;;;;5120772;27;20401;-47
2021/09/07 03:38:20;;;;;;;4.93;1.30;;;27.00;95.00;;;;;;5120720;28;20073;-47
2021/09/07 03:40:47;;;;;;;8.82;1.33;;;27.00;95.10;;;;;;5120597;28;20016;-49
2021/09/07 03:43:13;;;;;;;10.18;1.58;;;27.00;95.20;;;;;;5121575;28;20326;-44
2021/09/07 03:45:41;;;;;;;8.38;1.23;;;26.90;95.20;;;;;;5121632;28;20085;-49
2021/09/07 03:48:07;;;;;;;5.60;1.55;;;26.90;95.20;;;;;;5119034;28;20200;-44
2021/09/07 03:50:34;;;;;;;4.47;1.30;;;26.90;95.20;;;;;;5121926;28;20065;-49
2021/09/07 03:53:01;;;;;;;5.65;1.58;;;26.90;95.30;;;;;;5120627;28;20015;-43
2021/09/07 03:55:27;;;;;;;5.68;1.20;;;26.90;95.20;;;;;;5121576;28;20036;-46
2021/09/07 03:57:54;;;;;;;6.10;1.30;;;26.90;95.30;;;;;;5118317;28;20023;-44
2021/09/07 04:00:20;;;;;;;5.25;1.20;;;26.80;95.30;;;;;;5121419;28;20016;-44
2021/09/07 04:02:47;;;;;;;7.80;1.20;;;26.80;95.30;;;;;;5121133;28;20046;-46
2021/09/07 04:05:14;;;;;;;9.02;1.48;;;26.80;95.30;;;;;;5121401;28;20019;-48
2021/09/07 04:07:40;;;;;;;5.38;1.48;;;26.80;95.40;;;;;;5120662;28;20026;-48
2021/09/07 04:10:08;;;;;;;4.97;1.20;;;26.80;95.40;;;;;;5121291;28;20027;-44
2021/09/07 04:12:35;;;;;;;5.82;1.42;;;26.80;95.40;;;;;;5120961;28;20026;-49
2021/09/07 04:15:02;;;;;;;7.25;1.73;;;26.70;95.30;;;;;;5121280;28;20083;-46
2021/09/07 04:17:28;;;;;;;6.53;1.20;;;26.70;95.30;;;;;;5121121;28;20061;-44
2021/09/07 04:19:55;;;;;;;7.38;1.13;;;26.70;95.30;;;;;;5121014;28;20028;-49
2021/09/07 04:22:21;;;;;;;8.20;1.42;;;26.70;95.40;;;;;;5120121;28;20070;-44
2021/09/07 04:24:48;;;;;;;5.18;1.60;;;26.70;95.40;;;;;;5120448;28;20032;-47
2021/09/07 04:27:15;;;;;;;6.72;1.48;;;26.70;95.40;;;;;;5120524;28;20012;-47
2021/09/07 04:29:41;;;;;;;3.53;1.23;;;26.70;95.40;;;;;;5120323;28;20242;-45
2021/09/07 04:32:08;;;;;;;9.52;1.35;;;26.70;95.50;;;;;;5120424;28;20308;-51
2021/09/07 04:34:34;;;;;;;6.72;1.50;;;26.70;95.50;;;;;;5120118;28;20042;-47
2021/09/07 04:37:01;;;;;;;10.73;1.50;;;26.70;95.50;;;;;;5119944;28;20015;-48
2021/09/07 04:39:28;;;;;;;6.30;1.40;;;26.70;95.50;;;;;;5120280;28;20099;-45
2021/09/07 04:41:54;;;;;;;4.97;1.63;;;26.70;95.50;;;;;;5119142;28;20031;-48
2021/09/07 04:44:23;;;;;;;6.53;1.67;;;26.70;95.50;;;;;;5120320;28;20023;-46
2021/09/07 04:46:49;;;;;;;6.00;1.63;;;26.60;95.50;;;;;;5108499;28;20024;-52
2021/09/07 04:49:16;;;;;;;5.15;1.80;;;26.60;95.50;;;;;;5106694;28;20019;-47
2021/09/07 04:51:43;;;;;;;8.80;1.85;;;26.60;95.50;;;;;;5106046;28;20020;-45
2021/09/07 04:54:09;;;;;;;8.38;1.63;;;26.60;95.50;;;;;;5106293;28;20297;-45
2021/09/07 04:56:36;;;;;;;7.90;1.58;;;26.60;95.40;;;;;;5105476;28;20020;-45
2021/09/07 04:59:03;;;;;;;8.88;1.80;;;26.60;95.40;;;;;;5105387;28;20024;-49
2021/09/07 05:01:30;;;;;;;5.00;1.58;;;26.60;95.40;;;;;;5106216;28;20012;-44
2021/09/07 05:03:56;;;;;;;9.50;1.98;;;26.60;95.40;;;;;;5106578;28;20024;-50
2021/09/07 05:06:23;;;;;;;6.88;1.70;;;26.60;95.40;;;;;;5104663;28;20023;-49
2021/09/07 05:08:49;;;;;;;4.97;1.60;;;26.60;95.30;;;;;;5104678;28;20043;-45
2021/09/07 05:11:16;;;;;;;7.28;1.50;;;26.60;95.30;;;;;;5104034;28;20362;-47
2021/09/07 05:13:42;;;;;;;2.22;1.38;;;26.60;95.20;;;;;;5105168;28;20087;-50
2021/09/07 05:16:09;;;;;;;3.95;1.58;;;26.60;95.30;;;;;;5105502;28;20211;-48
2021/09/07 05:18:36;;;;;;;5.60;1.80;;;26.60;95.30;;;;;;5109140;28;20075;-48
2021/09/07 05:21:02;;;;;;;3.40;1.52;;;26.60;95.30;;;;;;5126672;28;20016;-53
2021/09/07 05:23:29;;;;;;;6.57;1.65;;;26.50;95.30;;;;;;5126557;28;20026;-48
2021/09/07 05:25:56;;;;;;;5.95;1.58;;;26.60;95.40;;;;;;5126664;28;20344;-48
2021/09/07 05:28:22;;;;;;;7.57;1.65;;;26.50;95.40;;;;;;5126583;28;20030;-47
2021/09/07 05:30:49;;;;;;;6.15;1.85;;;26.50;95.40;;;;;;5126518;28;20080;-50
2021/09/07 05:33:15;;;;;;;5.57;1.50;;;26.50;95.40;;;;;;5126604;28;20039;-50
2021/09/07 05:35:42;;;;;;;5.38;1.50;;;26.50;95.40;;;;;;5126238;28;20339;-49
2021/09/07 05:38:09;;;;;;;7.30;1.85;;;26.50;95.40;;;;;;5126327;28;20018;-51
2021/09/07 05:40:35;;;;;;;4.78;1.67;;;26.50;95.40;;;;;;5126769;28;20053;-55
2021/09/07 05:43:02;;;;;;;4.93;1.33;;;26.50;95.40;;;;;;5126429;28;20035;-50
2021/09/07 05:45:28;;;;;;;4.55;1.77;;;26.50;95.40;;;;;;5126739;28;20023;-50
2021/09/07 05:47:55;;;;;;;5.10;1.70;;;26.50;95.50;;;;;;5126226;28;20031;-47
2021/09/07 05:50:21;;;;;;;4.57;1.40;;;26.50;95.60;;;;;;5126671;28;20094;-54
2021/09/07 05:52:48;;;;;;;5.60;1.83;;;26.50;95.60;;;;;;5126123;28;20020;-53
2021/09/07 05:55:16;;;;;;;4.88;1.70;;;26.50;95.70;;;;;;5126023;28;20027;-56
2021/09/07 05:57:43;;;;;;;3.65;1.73;;;26.50;95.70;;;;;;5124962;28;20053;-54
2021/09/07 06:00:11;;;;;;;8.32;1.88;;;26.50;95.70;;;;;;5126669;28;20032;-56
2021/09/07 06:02:37;;;;;;;7.88;1.70;;;26.50;95.70;;;;;;5125780;28;20012;-50
2021/09/07 06:05:06;;;;;;;6.57;1.98;;;26.50;95.80;;;;;;5126137;28;20081;-50
2021/09/07 06:07:32;;;;;;;6.13;1.88;;;26.50;95.80;;;;;;5125845;28;20051;-49
2021/09/07 06:09:59;;;;;;;8.43;1.85;;;26.50;95.80;;;;;;5125846;28;20027;-49
2021/09/07 06:12:25;;;;;;;4.75;1.70;;;26.50;95.80;;;;;;5125946;28;20024;-52
2021/09/07 06:14:52;;;;;;;7.97;1.95;;;26.50;95.80;;;;;;5126000;28;20095;-54
2021/09/07 06:17:19;;;;;;;7.00;1.70;;;26.50;95.80;;;;;;5125736;28;20041;-53
2021/09/07 06:19:45;;;;;;;8.02;1.95;;;26.50;95.70;;;;;;5125932;28;20065;-53
2021/09/07 06:22:12;;;;;;;5.72;1.70;;;26.50;95.80;;;;;;5125600;28;20015;-54
2021/09/07 06:24:39;;;;;;;4.43;1.55;;;26.50;95.70;;;;;;5125557;28;20046;-53
2021/09/07 06:27:05;;;;;;;6.05;1.88;;;26.50;95.70;;;;;;5125561;28;20094;-48
2021/09/07 06:29:32;;;;;;;5.70;1.77;;;26.40;95.70;;;;;;5125571;28;20029;-53
2021/09/07 06:31:59;;;;;;;7.72;1.55;;;26.40;95.70;;;;;;5125339;28;20023;-55
2021/09/07 06:34:26;;;;;;;5.03;1.55;;;26.40;95.70;;;;;;5125091;28;20046;-47
2021/09/07 06:36:53;;;;;;;6.47;1.60;;;26.40;95.60;;;;;;5125355;28;20019;-53
2021/09/07 06:39:21;;;;;;;6.80;1.88;;;26.40;95.60;;;;;;5125310;28;20061;-54
2021/09/07 06:41:47;;;;;;;3.72;1.63;;;26.40;95.60;;;;;;5125424;28;20050;-55
2021/09/07 06:44:14;;;;;;;6.00;1.92;;;26.40;95.60;;;;;;5125304;28;20035;-50
2021/09/07 06:46:40;;;;;;;4.25;1.67;;;26.40;95.60;;;;;;5125079;28;20020;-47
2021/09/07 06:49:07;;;;;;;6.43;1.80;;;26.30;95.60;;;;;;5125238;28;20069;-53
2021/09/07 06:51:34;;;;;;;6.38;1.95;;;26.30;95.60;;;;;;5125052;28;20023;-50
2021/09/07 06:54:01;;;;;;;5.53;1.70;;;26.40;95.60;;;;;;5124680;28;20106;-48
2021/09/07 06:56:27;;;;;;;7.45;2.03;;;26.40;95.60;;;;;;5124974;28;20019;-50
2021/09/07 06:58:54;;;;;;;4.72;1.83;;;26.40;95.60;;;;;;5124992;28;20030;-52
2021/09/07 07:01:20;;;;;;;6.15;1.90;;;26.40;95.60;;;;;;5124864;28;20319;-53
2021/09/07 07:03:47;;;;;;;9.88;2.00;;;26.40;95.60;;;;;;5124814;28;20055;-54
2021/09/07 07:06:13;;;;;;;10.10;3.05;;;26.40;95.60;;;;;;5124705;28;20023;-51
2021/09/07 07:08:40;;;;;;;5.95;2.08;;;26.40;95.50;;;;;;5124485;28;20026;-50
2021/09/07 07:11:07;;;;;;;8.38;2.15;;;26.30;95.50;;;;;;5124703;28;20215;-50
2021/09/07 07:13:34;;;;;;;6.20;2.00;;;26.40;95.60;;;;;;5124544;28;20019;-52
2021/09/07 07:16:00;;;;;;;9.68;2.00;;;26.30;95.60;;;;;;5124562;28;20016;-46
2021/09/07 07:18:27;;;;;;;6.50;2.17;;;26.30;95.60;;;;;;5124712;28;20022;-53
2021/09/07 07:20:53;;;;;;;4.68;2.35;;;26.30;95.70;;;;;;5124621;28;20048;-45
2021/09/07 07:23:20;;;;;;;6.90;2.10;;;26.30;95.70;;;;;;5124294;28;20015;-52
2021/09/07 07:25:47;;;;;;;8.00;2.47;;;26.30;95.90;;;;;;5124711;28;20200;-53
2021/09/07 07:28:14;;;;;;;7.40;2.05;;;26.30;95.60;;;;;;5124405;28;20015;-50
2021/09/07 07:30:40;;;;;;;5.80;2.00;;;26.30;95.60;;;;;;5124957;28;20027;-47
2021/09/07 07:33:09;;;;;;;8.32;1.88;;;26.30;95.70;;;;;;5125151;28;20026;-52
2021/09/07 07:35:36;;;;;;;6.18;1.90;;;26.30;95.60;;;;;;5124029;28;20074;-54
2021/09/07 07:38:03;;;;;;;14.48;2.20;;;26.30;95.60;;;;;;5124398;28;20069;-46
2021/09/07 07:40:29;;;;;;;8.73;2.55;;;26.30;95.70;;;;;;5124191;28;20100;-46
2021/09/07 07:42:56;;;;;;;7.78;1.98;;;26.30;95.70;;;;;;5124383;28;20203;-48
2021/09/07 07:45:22;;;;;;;6.90;1.98;;;26.30;95.70;;;;;;5125116;28;20027;-47
2021/09/07 07:47:49;;;;;;;5.90;1.83;;;26.30;95.70;;;;;;5124372;28;20086;-48
2021/09/07 07:50:15;;;;;;;6.80;1.98;;;26.30;95.80;;;;;;5121395;28;20316;-51
2021/09/07 07:52:42;;;;;;;5.00;1.88;;;26.30;95.70;;;;;;5124293;28;20088;-46
2021/09/07 07:55:09;;;;;;;10.45;2.40;;;26.30;95.70;;;;;;5124625;28;20249;-50
2021/09/07 07:57:35;;;;;;;5.45;1.77;;;26.30;95.80;;;;;;5124343;28;20090;-50
2021/09/07 08:00:03;;;;;;;5.93;2.33;;;26.30;95.70;;;;;;5124749;28;20027;-49
2021/09/07 08:02:30;;;;;;;5.10;1.80;;;26.30;95.70;;;;;;5124214;28;20011;-48
2021/09/07 08:04:57;;;;;;;11.13;2.10;;;26.30;95.70;;;;;;5124406;28;20024;-47
2021/09/07 08:07:23;;;;;;;5.72;2.00;;;26.30;95.60;;;;;;5124510;28;20023;-53
2021/09/07 08:09:50;;;;;;;6.57;2.30;;;26.30;95.70;;;;;;5124578;28;20098;-48
2021/09/07 08:12:38;;;;;;;5.57;1.85;;;26.30;95.60;;;;;;5124446;28;20080;-47
2021/09/07 08:15:05;;;;;;;7.50;1.77;;;26.30;95.60;;;;;;5124239;28;20031;-51
2021/09/07 08:17:31;;;;;;;3.50;1.75;;;26.30;95.70;;;;;;5124035;28;20042;-47
2021/09/07 08:19:58;;;;;;;7.90;1.70;;;26.20;95.70;;;;;;5124412;28;20028;-49
2021/09/07 08:22:25;;;;;;;4.53;1.95;;;26.20;95.70;;;;;;5127407;28;20016;-48
2021/09/07 08:24:51;;;;;;;7.45;2.03;;;26.20;95.70;;;;;;5128565;28;20024;-47
2021/09/07 08:27:18;;;;;;;6.40;2.33;;;26.30;95.80;;;;;;5127952;28;20015;-56
2021/09/07 08:29:44;;;;;;;7.43;1.95;;;26.20;95.80;;;;;;5127929;28;20057;-55
2021/09/07 08:32:11;;;;;;;5.35;2.03;;;26.20;95.80;;;;;;5128029;28;20047;-56
2021/09/07 08:34:38;;;;;;;5.93;1.85;;;26.30;95.80;;;;;;5127429;28;20099;-52
2021/09/07 08:37:05;;;;;;;9.23;1.98;;;26.30;95.80;;;;;;5127806;28;20250;-49
2021/09/07 08:39:31;;;;;;;7.97;2.20;;;26.30;95.80;;;;;;5127925;28;20083;-47
2021/09/07 08:41:58;;;;;;;6.82;2.00;;;26.30;95.80;;;;;;5127756;28;20019;-56
2021/09/07 08:44:25;;;;;;;8.70;2.15;;;26.30;95.90;;;;;;5127802;28;20195;-51
2021/09/07 08:46:52;;;;;;;8.07;2.13;;;26.20;95.90;;;;;;5127659;28;20032;-46
2021/09/07 08:49:20;;;;;;;6.38;2.15;;;26.30;95.90;;;;;;5127959;28;20300;-58
2021/09/07 08:51:47;;;;;;;10.48;2.50;;;26.20;95.80;;;;;;5127343;28;20219;-54
2021/09/07 08:54:14;;;;;;;7.55;2.13;;;26.30;95.90;;;;;;5127461;28;20028;-55
2021/09/07 08:56:42;;;;;;;6.35;1.73;;;26.20;95.80;;;;;;5127260;28;20338;-51
2021/09/07 08:59:09;;;;;;;8.65;1.90;;;26.20;95.90;;;;;;5123686;28;20105;-51
2021/09/07 09:01:40;;;;;;;12.00;2.08;;;26.20;95.90;;;;;;5123689;28;20432;-51
2021/09/07 09:04:23;;;;;;;6.55;2.13;;;26.20;95.90;;;;;;5127220;28;20032;-52
2021/09/07 09:06:51;;;;;;;5.97;2.70;;;26.20;95.90;;;;;;5127516;28;20315;-54
2021/09/07 09:09:17;;;;;;;15.63;2.25;;;26.20;95.90;;;;;;5127672;28;20051;-55
2021/09/07 09:11:57;;;;;;;9.45;2.03;;;26.30;95.90;;;;;;5127260;28;20061;-53
2021/09/07 09:14:32;;;;;;;7.50;2.20;;;26.20;95.90;;;;;;5127079;28;20035;-54
2021/09/07 09:16:59;;;;;;;7.82;2.13;;;26.20;95.90;;;;;;5126705;28;20022;-51
2021/09/07 09:19:26;;;;;;;7.57;1.83;;;26.20;96.00;;;;;;5126969;28;20336;-50
2021/09/07 09:21:53;;;;;;;4.10;2.00;;;26.20;95.90;;;;;;5126896;28;20057;-53
2021/09/07 09:24:21;;;;;;;6.43;2.10;;;26.20;96.00;;;;;;5127109;28;20219;-47
2021/09/07 09:27:04;;;;;;;8.55;2.05;;;26.20;96.00;;;;;;5127103;28;20079;-52
2021/09/07 09:29:31;;;;;;;;;;;26.10;96.10;;;;;;5126459;28;20036;-47
2021/09/07 09:32:10;;;;;;;9.60;1.95;;;26.20;96.10;;;;;;5111451;28;19923;-45
2021/09/07 09:34:38;;;;;;;5.07;1.60;;;26.20;96.10;;;;;;5114049;28;20143;-50
2021/09/07 09:37:11;;;;;;;7.72;2.60;;;26.20;96.10;;;;;;5124612;28;20015;-46
2021/09/07 09:39:46;;;;;;;;;;;26.20;96.00;;;;;;5125309;28;20253;-47
2021/09/07 09:42:29;;;;;;;10.20;2.17;;;26.20;96.00;;;;;;5106463;28;19900;-48
2021/09/07 09:45:07;;;;;;;8.02;2.17;;;26.20;96.00;;;;;;5125729;28;20391;-47
2021/09/07 09:47:42;;;;;;;3.35;1.80;;;26.20;96.00;;;;;;5126145;28;20023;-52
2021/09/07 09:50:11;;;;;;;5.20;1.90;;;26.20;96.10;;;;;;5126527;28;20062;-44
2021/09/07 09:52:40;;;;;;;7.00;2.00;;;26.20;96.00;;;;;;5126047;28;20066;-44
2021/09/07 09:55:10;;;;;;;12.95;2.22;;;26.20;96.00;;;;;;5126287;28;20019;-45
2021/09/07 09:57:38;;;;;;;5.95;2.13;;;26.20;96.00;;;;;;5126264;28;20015;-45
2021/09/07 10:00:07;;;;;;;4.13;1.90;;;26.10;96.00;;;;;;5126389;28;20030;-46
2021/09/07 10:02:33;;;;;;;6.57;2.20;;;26.20;96.00;;;;;;5125740;28;20020;-44
2021/09/07 10:05:00;;;;;;;7.95;1.95;;;26.20;96.00;;;;;;5126403;28;20089;-48
2021/09/07 10:07:27;;;;;;;5.47;2.10;;;26.20;96.00;;;;;;5125768;28;20323;-46
2021/09/07 10:09:57;;;;;;;8.82;1.73;;;26.10;96.20;;;;;;5125633;28;20081;-48
2021/09/07 10:12:40;;;;;;;4.43;2.00;;;26.10;96.00;;;;;;5125680;28;20266;-44
2021/09/07 10:18:33;;;;;;;6.65;2.00;;;26.10;96.00;;;;;;5125642;28;20075;-45
2021/09/07 10:22:56;;;;;;;8.55;2.47;;;26.20;96.00;;;;;;5125491;28;20031;-50
2021/09/07 10:26:54;;;;;;;9.55;3.47;;;26.10;96.10;;;;;;5112019;28;20142;-45
2021/09/07 10:29:32;;;;;;;7.97;3.00;;;26.10;96.00;;;;;;5125394;28;20099;-48
2021/09/07 10:31:59;;;;;;;6.88;2.60;;;26.10;96.00;;;;;;5125150;28;20019;-45
2021/09/07 10:34:30;;;;;;;7.88;3.00;;;26.10;96.10;;;;;;5124902;28;20232;-47
2021/09/07 10:37:05;;;;;;;5.05;2.83;;;26.10;96.10;;;;;;5125136;28;20031;-50
2021/09/07 10:39:36;;;;;;;11.18;3.10;;;26.10;96.10;;;;;;5125367;28;20024;-45
2021/09/07 10:42:04;;;;;;;10.95;3.33;;;26.10;96.10;;;;;;5125398;28;20047;-43
2021/09/07 10:44:35;;;;;;;6.05;2.70;;;26.10;96.10;;;;;;5124660;28;20031;-54
2021/09/07 10:47:08;;;;;;;8.40;2.80;;;26.10;96.10;;;;;;5125201;28;20024;-44
2021/09/07 10:49:37;;;;;;;5.32;2.40;;;26.10;96.30;;;;;;5125218;28;20023;-50
2021/09/07 10:52:09;;;;;;;11.63;3.20;;;26.10;96.10;;;;;;5124817;28;20034;-45
2021/09/07 10:54:45;;;;;;;9.10;2.67;;;26.10;96.10;;;;;;5125077;28;20339;-45
2021/09/07 10:57:38;;;;;;;12.13;2.60;;;26.10;96.10;;;;;;5124829;28;20085;-49
2021/09/07 11:00:25;;;;;;;10.02;2.42;;;26.10;96.00;;;;;;5125164;28;20186;-46
2021/09/07 11:02:55;;;;;;;8.35;2.45;;;26.10;96.00;;;;;;5108325;28;20251;-53
2021/09/07 11:05:35;;;;;;;9.43;3.20;;;26.00;96.00;;;;;;5125195;28;20333;-46
2021/09/07 11:08:04;;;;;;;6.57;3.33;;;26.00;96.00;;;;;;5124716;28;20334;-45
2021/09/07 11:10:46;;;;;;;8.05;2.63;;;26.10;96.00;;;;;;5125065;28;20023;-47
2021/09/07 11:13:23;;;;;;;8.25;2.75;;;26.10;96.00;;;;;;5124944;28;20023;-52
2021/09/07 11:15:51;;;;;;;7.18;2.78;;;26.10;96.00;;;;;;5124501;28;20081;-47
2021/09/07 11:18:27;;;;;;;8.18;3.50;;;26.10;96.00;;;;;;5124290;28;20011;-44
2021/09/07 11:20:55;;;;;;;7.68;4.15;;;26.10;96.10;;;;;;5124728;28;20028;-49
2021/09/07 11:23:27;;;;;;;7.43;3.60;;;26.10;96.10;;;;;;5124408;28;20042;-54
2021/09/07 11:25:59;;;;;;;9.75;3.97;;;26.10;96.10;;;;;;5124597;28;20042;-50
2021/09/07 11:28:26;;;;;;;8.93;4.10;;;26.10;96.10;;;;;;5124676;28;20330;-50
2021/09/07 11:30:54;;;;;;;11.18;4.45;;;26.10;96.10;;;;;;5124291;28;20030;-51
2021/09/07 11:33:27;;;;;;;12.13;4.22;;;26.10;96.10;;;;;;5124558;28;20074;-52
2021/09/07 11:36:00;;;;;;;11.05;4.05;;;26.10;96.10;;;;;;5124333;28;20091;-51
2021/09/07 11:38:29;;;;;;;;;;;26.10;96.40;;;;;;5124941;28;20019;-48
2021/09/07 11:41:04;;;;;;;15.25;9.25;;;26.10;96.20;;;;;;5124403;28;19904;-50
2021/09/07 11:43:34;;;;;;;9.15;6.07;;;26.10;96.30;;;;;;5124476;28;20227;-49
2021/09/07 11:46:16;;;;;;;14.48;6.10;;;26.10;96.30;;;;;;5124241;28;20158;-54
2021/09/07 11:48:47;;;;;;;14.07;6.05;;;26.20;96.30;;;;;;5124340;28;20026;-51
2021/09/07 11:51:16;;;;;;;16.05;5.65;;;26.10;96.20;;;;;;5124016;28;20020;-47
2021/09/07 11:53:44;;;;;;;11.45;5.47;;;26.20;96.30;;;;;;5124325;28;20024;-50
2021/09/07 11:56:26;;;;;;;15.80;5.28;;;26.20;96.30;;;;;;5125904;28;20026;-54
2021/09/07 11:58:52;;;;;;;9.73;4.25;;;26.20;96.20;;;;;;5128515;28;20047;-54
2021/09/07 12:01:31;;;;;;;9.98;4.57;;;26.20;96.20;;;;;;5128142;28;20023;-48
2021/09/07 12:04:00;;;;;;;10.63;4.55;;;26.20;96.20;;;;;;5128429;28;20103;-46
2021/09/07 12:06:38;;;;;;;10.07;4.53;;;26.20;96.10;;;;;;5128540;28;20024;-52
2021/09/07 12:09:28;;;;;;;9.45;4.60;;;26.20;96.30;;;;;;5128292;28;20023;-51
2021/09/07 12:12:03;;;;;;;11.82;4.57;;;26.20;96.20;;;;;;5127754;28;20030;-49
2021/09/07 12:14:44;;;;;;;9.57;4.57;;;26.20;96.20;;;;;;5128648;28;20024;-45
2021/09/07 12:17:16;;;;;;;9.63;5.07;;;26.30;96.20;;;;;;5127883;28;20095;-46
2021/09/07 12:19:48;;;;;;;;;;;26.20;96.10;;;;;;5128735;28;20038;-49
2021/09/07 12:22:18;;;;;;;14.98;5.18;;;26.30;96.20;;;;;;5127858;28;19899;-47
2021/09/07 12:25:14;;;;;;;7.40;4.90;;;26.30;96.30;;;;;;5128322;28;20023;-47
2021/09/07 12:27:48;;;;;;;11.23;5.70;;;26.30;96.20;;;;;;5127591;28;20019;-46
2021/09/07 12:30:28;;;;;;;8.30;5.22;;;26.30;96.30;;;;;;5128244;28;20181;-49
2021/09/07 12:33:02;;;;;;;12.13;5.45;;;26.40;96.20;;;;;;5127574;28;20027;-47
2021/09/07 12:35:43;;;;;;;13.93;5.65;;;26.40;96.00;;;;;;5127510;28;20096;-45
2021/09/07 12:38:18;;;;;;;10.70;5.55;;;26.50;95.90;;;;;;5127389;28;20020;-49
2021/09/07 12:40:51;;;;;;;13.10;5.85;;;26.50;96.00;;;;;;5127845;28;20034;-56
2021/09/07 12:43:29;;;;;;;10.63;5.00;;;26.50;95.90;;;;;;5127373;28;20023;-48
2021/09/07 12:46:01;;;;;;;6.82;5.00;;;26.60;95.70;;;;;;5127554;28;20015;-47
2021/09/07 12:48:28;;;;;;;;;;;26.60;95.70;;;;;;5127681;28;20023;-50
2021/09/07 12:50:57;;;;;;;10.25;4.35;;;26.60;95.60;;;;;;5127271;28;20166;-48
2021/09/07 12:53:26;;;;;;;9.98;2.97;;;26.70;95.60;;;;;;5127106;28;20057;-47
2021/09/07 12:55:53;;;;;;;5.03;3.38;;;26.60;95.70;;;;;;5127206;28;20087;-44
2021/09/07 12:58:20;;;;;;;4.95;2.50;;;26.70;95.60;;;;;;5127038;28;20041;-52
2021/09/07 13:00:48;;;;;;;8.02;2.45;;;26.80;95.70;;;;;;5127209;28;20019;-54
2021/09/07 13:03:14;;;;;;;5.53;2.75;;;26.80;95.50;;;;;;5127135;28;20015;-51
2021/09/07 13:05:43;;;;;;;10.65;2.10;;;26.80;95.50;;;;;;5127406;28;20250;-50
2021/09/07 13:08:11;;;;;;;4.00;1.63;;;26.90;95.40;;;;;;5126735;28;20039;-49
2021/09/07 13:10:38;;;;;;;3.58;1.80;;;26.90;95.30;;;;;;5109063;28;20038;-46
2021/09/07 13:13:05;;;;;;;9.07;2.10;;;26.90;95.20;;;;;;5126667;28;20023;-55